Time;durP1;ratioP1;P1;durP2;ratioP2;P2;SDS_P1;SDS_P2;PMS_P1;PMS_P2;Temp;Humidity;BMP_temperature;BMP_pressure;BME280_temperature;BME280_humidity;BME280_pressure;Samples;Min_cycle;Max_cycle;Signal;HPM_P1;HPM_P2
2022/11/04 00:02:53;;;;;;;17.70;9.20;;;;;;;12.27;57.98;98592.20;223148;1254;140956;-61
2022/11/04 00:13:18;;;;;;;17.30;9.40;;;;;;;12.12;58.35;98590.87;223183;1256;140731;-60
2022/11/04 00:18:21;;;;;;;18.50;8.90;;;;;;;12.06;58.54;98589.87;223289;1257;140408;-64
2022/11/04 00:28:45;;;;;;;16.50;8.80;;;;;;;12.00;58.71;98570.77;223916;1240;140085;-64
2022/11/04 00:33:51;;;;;;;16.80;9.20;;;;;;;11.98;58.85;98560.06;223214;1248;140484;-62
2022/11/04 00:38:54;;;;;;;17.60;9.60;;;;;;;11.99;58.89;98558.07;223882;1249;140219;-60
2022/11/04 00:43:59;;;;;;;17.00;8.90;;;;;;;11.95;58.91;98551.39;223113;1257;140254;-63
2022/11/04 00:49:02;;;;;;;;;;;;;;;11.92;59.03;98546.16;223898;1247;139855;-63
2022/11/04 00:54:05;;;;;;;15.60;9.60;;;;;;;11.92;58.85;98548.30;223322;1257;126234;-63
2022/11/04 00:59:09;;;;;;;15.00;8.90;;;;;;;11.96;59.39;98539.41;223300;1257;139827;-64
2022/11/04 01:04:16;;;;;;;15.70;9.10;;;;;;;12.00;59.32;98533.95;223979;1247;139873;-66
2022/11/04 01:09:19;;;;;;;16.90;9.40;;;;;;;12.01;59.22;98533.36;223187;1257;139407;-66
2022/11/04 01:14:22;;;;;;;15.80;9.80;;;;;;;12.00;59.16;98514.94;223282;1251;139679;-66
2022/11/04 01:19:25;;;;;;;14.70;9.10;;;;;;;12.02;59.28;98509.09;223216;1257;139525;-68
2022/11/04 01:24:28;;;;;;;15.50;9.50;;;;;;;12.03;59.22;98501.52;223183;1250;139439;-65
2022/11/04 01:29:31;;;;;;;13.40;8.40;;;;;;;12.03;59.22;98493.59;223188;1256;139955;-65
2022/11/04 01:34:34;;;;;;;13.60;8.70;;;;;;;12.01;59.23;98489.24;223332;1252;139709;-64
2022/11/04 01:39:45;;;;;;;15.40;8.40;;;;;;;11.99;59.23;98486.42;223190;1249;140656;-65
2022/11/04 01:44:51;;;;;;;13.80;8.80;;;;;;;11.95;59.32;98478.33;223157;1257;139355;-65
2022/11/04 01:50:02;;;;;;;13.30;8.70;;;;;;;11.94;59.36;98477.73;223941;1253;139999;-65
2022/11/04 01:55:10;;;;;;;13.40;8.60;;;;;;;11.92;59.24;98467.42;223182;1263;139804;-63
2022/11/04 02:00:15;;;;;;;15.90;9.00;;;;;;;11.88;59.45;98459.33;224110;1246;139270;-65
2022/11/04 02:05:18;;;;;;;16.20;7.90;;;;;;;11.87;59.52;98451.11;223941;1242;140080;-66
2022/11/04 02:10:25;;;;;;;13.30;7.90;;;;;;;11.85;59.47;98439.48;223053;1250;139768;-64
2022/11/04 02:15:34;;;;;;;14.40;7.70;;;;;;;11.85;59.47;98430.58;223120;1250;140782;-64
2022/11/04 02:21:09;;;;;;;15.30;7.70;;;;;;;11.85;59.36;98420.80;223290;1257;140242;-62
2022/11/04 02:26:37;;;;;;;12.40;8.30;;;;;;;11.90;59.53;98419.41;223787;1242;140593;-65
2022/11/04 02:32:07;;;;;;;16.20;8.30;;;;;;;11.95;59.68;98416.52;223154;1256;139350;-63
2022/11/04 02:37:19;;;;;;;12.80;7.90;;;;;;;11.99;59.39;98406.79;223961;1253;139431;-62
2022/11/04 02:42:34;;;;;;;13.00;8.60;;;;;;;11.98;59.46;98404.89;223890;1250;140742;-66
2022/11/04 02:47:40;;;;;;;12.60;8.20;;;;;;;11.97;59.48;98405.16;223166;1256;139405;-66
2022/11/04 02:52:57;;;;;;;10.80;6.60;;;;;;;11.96;59.56;98393.84;223231;1248;140897;-66
2022/11/04 02:58:04;;;;;;;17.30;8.80;;;;;;;11.95;59.58;98393.59;223151;1255;140452;-62
2022/11/04 03:03:24;;;;;;;15.10;8.50;;;;;;;11.92;59.72;98389.20;223892;1240;139547;-63
2022/11/04 03:08:34;;;;;;;13.10;7.80;;;;;;;11.90;59.57;98389.02;223284;1253;139426;-65
2022/11/04 03:13:49;;;;;;;16.40;8.90;;;;;;;11.90;59.76;98391.70;223284;1258;139936;-64
2022/11/04 03:19:04;;;;;;;14.90;8.10;;;;;;;11.88;59.79;98393.55;223221;1256;139156;-71
2022/11/04 03:24:07;;;;;;;16.20;8.20;;;;;;;11.87;59.78;98393.63;223212;1262;139408;-67
2022/11/04 03:29:24;;;;;;;12.70;8.60;;;;;;;11.87;59.80;98394.92;223287;1251;140468;-65
2022/11/04 03:34:28;;;;;;;12.20;8.30;;;;;;;11.83;59.92;98391.23;223195;1261;140306;-65
2022/11/04 03:39:32;;;;;;;120.30;86.20;;;;;;;11.84;60.24;98381.81;223288;1257;140463;-65
2022/11/04 03:44:35;;;;;;;46.40;30.70;;;;;;;11.94;60.42;98377.27;223917;1253;142645;-66
2022/11/04 03:49:38;;;;;;;15.10;9.00;;;;;;;12.10;60.36;98364.51;223331;1254;140070;-65
2022/11/04 03:54:41;;;;;;;147.20;103.40;;;;;;;12.19;60.35;98360.55;224116;1253;139271;-65
2022/11/04 04:00:04;;;;;;;19.20;10.90;;;;;;;12.28;60.36;98353.05;223266;1254;140751;-65
2022/11/04 04:05:20;;;;;;;14.40;8.90;;;;;;;12.31;60.05;98352.15;223312;1257;140854;-64
2022/11/04 04:10:38;;;;;;;;;;;;;;;12.28;59.74;98349.19;223238;1255;139868;-66
2022/11/04 04:15:47;;;;;;;13.60;9.00;;;;;;;12.21;60.10;98338.02;223219;1253;125902;-65
2022/11/04 04:20:53;;;;;;;15.20;8.60;;;;;;;12.15;59.66;98334.24;223928;1250;140689;-65
2022/11/04 04:36:56;;;;;;;21.80;14.50;;;;;;;12.00;59.98;98306.00;223952;1256;141726;-66
2022/11/04 04:47:23;;;;;;;15.90;9.10;;;;;;;11.90;60.07;98299.38;223134;1263;139438;-64
2022/11/04 04:52:30;;;;;;;;;;;;;;;11.85;60.02;98293.78;223066;1264;139604;-64
2022/11/04 04:57:34;;;;;;;14.50;8.50;;;;;;;11.78;60.07;98292.14;223213;1257;126143;-64
2022/11/04 05:02:37;;;;;;;16.40;9.30;;;;;;;11.74;60.21;98294.98;223869;1246;139808;-64
2022/11/04 05:07:40;;;;;;;15.70;8.80;;;;;;;11.71;60.27;98292.33;224012;1247;139510;-64
2022/11/04 05:18:05;;;;;;;14.90;9.00;;;;;;;11.77;60.28;98285.11;223202;1257;139948;-68
2022/11/04 05:23:11;;;;;;;14.60;8.90;;;;;;;11.78;60.37;98270.62;223317;1257;139354;-65
2022/11/04 05:28:13;;;;;;;12.80;8.80;;;;;;;11.80;60.25;98262.51;223229;1254;140012;-65
2022/11/04 05:33:16;;;;;;;12.50;8.60;;;;;;;11.80;60.35;98272.11;223128;1251;140169;-65
2022/11/04 05:38:20;;;;;;;17.30;8.60;;;;;;;11.77;60.23;98285.63;223092;1257;140406;-66
2022/11/04 05:43:23;;;;;;;12.80;7.80;;;;;;;11.73;60.32;98275.45;223281;1258;140254;-69
2022/11/04 05:48:26;;;;;;;16.30;7.80;;;;;;;11.73;60.49;98271.91;223861;1243;139648;-67
2022/11/04 05:53:29;;;;;;;13.30;8.10;;;;;;;11.71;60.42;98274.02;223137;1258;139520;-64
2022/11/04 05:58:32;;;;;;;14.30;8.00;;;;;;;11.69;60.25;98275.63;223842;1250;139542;-65
2022/11/04 06:03:35;;;;;;;11.50;7.90;;;;;;;11.66;60.35;98280.66;223083;1258;139648;-65
2022/11/04 06:08:38;;;;;;;15.10;8.30;;;;;;;11.62;60.28;98278.16;223203;1257;139246;-66
2022/11/04 06:13:47;;;;;;;15.80;8.50;;;;;;;11.60;60.47;98277.19;223237;1254;138985;-67
2022/11/04 06:18:51;;;;;;;19.60;9.70;;;;;;;11.59;60.45;98279.61;223282;1260;139442;-65
2022/11/04 06:23:56;;;;;;;16.70;8.60;;;;;;;11.59;60.44;98280.09;223069;1254;140706;-67
2022/11/04 06:28:59;;;;;;;12.00;8.00;;;;;;;11.63;60.42;98280.75;223048;1257;140408;-64
2022/11/04 06:34:02;;;;;;;16.90;8.80;;;;;;;11.67;60.52;98286.04;223857;1258;139817;-65
2022/11/04 06:39:05;;;;;;;15.80;8.70;;;;;;;11.73;60.46;98287.19;223069;1254;139329;-64
2022/11/04 06:44:08;;;;;;;14.20;8.80;;;;;;;11.75;60.42;98287.73;223947;1247;140395;-71
2022/11/04 06:49:14;;;;;;;16.10;8.60;;;;;;;11.76;60.53;98283.40;223288;1256;140061;-69
2022/11/04 06:54:17;;;;;;;17.20;8.80;;;;;;;11.78;60.20;98286.42;223282;1254;139897;-71
2022/11/04 06:59:20;;;;;;;16.40;9.10;;;;;;;11.80;60.26;98284.20;223390;1257;139645;-70
2022/11/04 07:04:23;;;;;;;26.40;8.90;;;;;;;11.82;60.31;98270.12;223262;1254;140147;-61
2022/11/04 07:09:26;;;;;;;19.20;9.30;;;;;;;11.84;60.24;98266.27;223797;1250;139760;-63
2022/11/04 07:14:29;;;;;;;16.30;9.00;;;;;;;11.87;60.00;98259.82;223299;1257;139233;-63
2022/11/04 07:19:32;;;;;;;15.80;8.50;;;;;;;11.88;60.19;98255.69;223350;1248;139577;-62
2022/11/04 07:24:35;;;;;;;16.00;8.50;;;;;;;11.89;60.18;98254.14;223193;1257;139808;-62
2022/11/04 07:29:38;;;;;;;16.00;8.50;;;;;;;11.92;60.14;98259.42;223182;1254;139534;-67
2022/11/04 07:34:41;;;;;;;17.30;7.80;;;;;;;11.96;60.11;98264.96;223206;1257;140785;-66
2022/11/04 07:39:44;;;;;;;20.00;8.70;;;;;;;12.02;59.96;98254.89;223257;1257;139170;-63
2022/11/04 07:44:47;;;;;;;23.00;8.40;;;;;;;12.12;60.20;98248.78;223315;1257;139718;-67
2022/11/04 07:49:50;;;;;;;30.50;8.40;;;;;;;12.23;59.95;98248.89;223333;1254;140804;-62
2022/11/04 07:54:53;;;;;;;30.80;8.20;;;;;;;12.34;60.14;98244.62;223305;1257;139546;-64
2022/11/04 07:59:56;;;;;;;21.90;8.20;;;;;;;12.45;60.14;98238.71;223445;1254;139172;-64
2022/11/04 08:04:59;;;;;;;14.90;8.30;;;;;;;12.59;59.87;98235.15;224001;1243;139759;-63
2022/11/04 08:10:02;;;;;;;13.30;7.30;;;;;;;12.74;59.80;98231.55;223277;1264;139508;-64
2022/11/04 08:15:06;;;;;;;15.90;8.40;;;;;;;12.90;59.72;98232.10;223234;1257;139651;-63
2022/11/04 08:20:09;;;;;;;14.50;7.20;;;;;;;13.07;59.53;98221.94;223866;1246;139389;-64
2022/11/04 08:25:12;;;;;;;16.90;7.30;;;;;;;13.24;59.18;98218.06;223239;1257;140510;-68
2022/11/04 08:30:16;;;;;;;23.40;8.30;;;;;;;13.41;59.05;98209.10;223162;1254;140349;-71
2022/11/04 08:35:19;;;;;;;21.00;7.40;;;;;;;13.58;58.62;98191.54;222558;1254;140062;-68
2022/11/04 08:40:23;;;;;;;16.80;7.50;;;;;;;13.73;58.27;98189.88;223092;1246;140164;-65
2022/11/04 08:45:26;;;;;;;13.20;6.30;;;;;;;13.87;57.75;98186.48;222284;1250;139352;-64
2022/11/04 08:50:35;;;;;;;15.10;7.20;;;;;;;14.00;57.45;98179.30;222307;1255;139760;-66
2022/11/04 08:55:38;;;;;;;17.80;8.10;;;;;;;14.14;57.01;98174.59;222445;1254;140413;-65
2022/11/04 09:00:42;;;;;;;14.60;7.70;;;;;;;14.27;56.96;98171.11;222366;1254;141049;-65
2022/11/04 09:05:46;;;;;;;12.60;7.30;;;;;;;14.38;56.64;98171.16;222332;1257;140093;-65
2022/11/04 09:10:49;;;;;;;18.20;7.10;;;;;;;14.50;56.46;98168.83;222374;1257;141112;-64
2022/11/04 09:15:53;;;;;;;20.20;7.00;;;;;;;14.60;55.94;98165.98;222322;1253;140470;-64
2022/11/04 09:20:59;;;;;;;21.50;7.10;;;;;;;14.71;55.78;98155.34;222209;1257;140266;-64
2022/11/04 09:26:09;;;;;;;14.40;6.60;;;;;;;14.83;55.40;98143.45;223160;1249;139851;-64
2022/11/04 09:31:17;;;;;;;24.00;7.40;;;;;;;14.98;55.49;98136.15;222488;1257;139564;-65
2022/11/04 09:36:20;;;;;;;17.80;5.90;;;;;;;15.11;54.99;98128.86;223088;1242;141221;-63
2022/11/04 09:41:42;;;;;;;14.90;6.50;;;;;;;15.22;54.78;98126.77;223165;1245;139783;-61
2022/11/04 09:46:48;;;;;;;15.00;6.70;;;;;;;15.34;54.46;98113.98;223051;1247;140926;-67
2022/11/04 09:51:52;;;;;;;19.70;5.60;;;;;;;15.43;54.59;98105.41;222339;1250;139250;-64
2022/11/04 09:57:00;;;;;;;15.20;6.10;;;;;;;15.55;54.29;98097.56;222262;1248;141365;-64
2022/11/04 10:02:06;;;;;;;10.30;6.10;;;;;;;15.71;54.04;98095.08;222279;1257;140829;-63
2022/11/04 10:07:28;;;;;;;17.30;6.90;;;;;;;15.86;53.83;98096.25;223234;1246;139602;-68
2022/11/04 10:12:43;;;;;;;14.30;6.60;;;;;;;16.04;53.61;98093.92;222243;1249;141012;-64
2022/11/04 10:17:53;;;;;;;49.60;33.00;;;;;;;16.29;54.73;98089.07;222981;1251;140985;-64
2022/11/04 10:23:33;;;;;;;31.20;21.20;;;;;;;17.25;57.48;98081.69;222249;1250;141513;-67
2022/11/04 10:28:48;;;;;;;23.10;14.40;;;;;;;18.04;56.20;98081.77;222078;1256;140531;-70
2022/11/04 10:34:03;;;;;;;16.20;10.90;;;;;;;18.53;55.85;98075.90;222359;1257;140928;-66
2022/11/04 10:39:19;;;;;;;19.50;7.10;;;;;;;18.91;55.30;98073.05;223159;1243;140793;-67
2022/11/04 10:44:28;;;;;;;19.40;9.00;;;;;;;19.25;54.49;98072.63;222230;1249;139946;-65
2022/11/04 10:49:55;;;;;;;103.20;70.30;;;;;;;19.47;53.76;98059.17;223073;1242;139016;-73
2022/11/04 10:55:58;;;;;;;25.20;14.70;;;;;;;19.43;51.64;98051.38;222427;1248;141715;-71
2022/11/04 11:01:22;;;;;;;18.90;7.90;;;;;;;19.30;51.46;98052.02;222740;1253;141320;-72
2022/11/04 11:06:34;;;;;;;13.50;7.40;;;;;;;19.22;50.79;98056.48;223030;1243;140534;-70
2022/11/04 11:11:47;;;;;;;16.80;7.90;;;;;;;19.09;50.22;98049.19;223112;1240;140402;-71
2022/11/04 11:16:50;;;;;;;18.10;7.70;;;;;;;18.93;50.01;98045.63;222300;1253;140530;-66
2022/11/04 11:21:56;;;;;;;14.00;7.00;;;;;;;18.87;50.10;98043.91;223021;1247;139818;-64
2022/11/04 11:27:02;;;;;;;18.80;7.10;;;;;;;18.95;50.48;98038.16;222211;1253;139736;-68
2022/11/04 11:32:24;;;;;;;25.90;8.20;;;;;;;18.99;49.83;98031.54;222340;1250;140233;-70
2022/11/04 11:37:30;;;;;;;20.70;8.30;;;;;;;18.94;49.71;98021.52;222415;1257;140293;-69
2022/11/04 11:42:33;;;;;;;19.80;7.30;;;;;;;18.81;49.21;98015.62;222405;1246;140443;-65
2022/11/04 11:47:40;;;;;;;16.20;7.20;;;;;;;18.79;49.58;98013.36;222461;1257;140270;-65
2022/11/04 11:52:45;;;;;;;20.30;7.60;;;;;;;18.84;50.21;98006.98;222304;1257;140908;-67
2022/11/04 11:58:40;;;;;;;20.90;7.80;;;;;;;18.94;50.25;98002.37;222231;1256;140721;-70
2022/11/04 12:04:03;;;;;;;22.40;7.70;;;;;;;18.99;50.15;97995.58;222807;1246;140650;-68
2022/11/04 12:09:31;;;;;;;16.90;6.50;;;;;;;19.02;50.16;97994.39;222209;1256;139649;-67
2022/11/04 12:14:58;;;;;;;18.80;5.70;;;;;;;19.07;50.00;97997.27;222228;1256;140237;-64
2022/11/04 12:20:27;;;;;;;16.00;6.00;;;;;;;19.09;49.80;97992.68;223063;1241;139871;-69
2022/11/04 12:25:39;;;;;;;15.50;5.80;;;;;;;19.10;49.95;97988.92;223259;1247;139879;-69
2022/11/04 12:31:15;;;;;;;13.00;6.20;;;;;;;19.07;49.76;97980.81;222249;1257;140873;-71
2022/11/04 12:36:36;;;;;;;13.00;5.60;;;;;;;19.05;49.63;97978.16;223073;1249;141211;-69
2022/11/04 12:41:53;;;;;;;21.30;5.20;;;;;;;19.03;49.75;97978.03;223021;1249;140108;-64
2022/11/04 12:47:32;;;;;;;12.20;5.20;;;;;;;19.06;49.76;97964.03;223012;1243;139929;-64
2022/11/04 12:52:44;;;;;;;11.70;4.70;;;;;;;19.05;49.87;97960.80;222351;1257;139460;-67
2022/11/04 12:57:58;;;;;;;8.70;4.90;;;;;;;19.04;49.82;97958.05;223162;1246;140736;-69
2022/11/04 13:03:40;;;;;;;12.60;5.30;;;;;;;19.00;49.39;97958.70;223124;1234;140236;-64
2022/11/04 13:08:50;;;;;;;13.70;5.40;;;;;;;18.97;49.39;97969.23;222302;1257;140363;-64
2022/11/04 13:14:03;;;;;;;11.70;5.30;;;;;;;18.97;49.18;97972.43;222356;1254;140107;-66
2022/11/04 13:19:47;;;;;;;19.90;7.20;;;;;;;18.81;48.32;97968.35;222392;1257;141326;-72
2022/11/04 13:24:55;;;;;;;9.10;6.00;;;;;;;18.57;48.13;97964.00;222461;1247;140417;-65
2022/11/04 13:30:46;;;;;;;16.70;5.90;;;;;;;18.38;48.13;97974.05;222419;1241;141510;-70
2022/11/04 13:36:03;;;;;;;11.00;5.90;;;;;;;18.18;48.24;97978.98;222345;1254;140744;-67
2022/11/04 13:41:15;;;;;;;14.00;5.80;;;;;;;18.03;48.41;97977.27;222369;1256;140453;-67
2022/11/04 13:46:36;;;;;;;18.90;6.90;;;;;;;17.90;48.47;97976.50;222336;1250;140553;-68
2022/11/04 13:51:45;;;;;;;18.20;7.70;;;;;;;17.80;48.68;97975.10;222309;1250;140219;-74
2022/11/04 13:56:49;;;;;;;16.90;7.30;;;;;;;17.71;48.92;97972.55;223130;1247;140370;-67
2022/11/04 14:02:24;;;;;;;13.10;6.30;;;;;;;17.64;49.01;97978.19;223303;1247;141665;-65
2022/11/04 14:07:55;;;;;;;17.00;6.50;;;;;;;17.56;49.27;97982.11;223244;1234;140504;-75
2022/11/04 14:13:25;;;;;;;16.50;7.00;;;;;;;17.49;49.49;97979.85;222337;1250;139822;-70
2022/11/04 14:18:39;;;;;;;16.80;6.70;;;;;;;17.40;49.71;97981.02;222373;1256;140174;-69
2022/11/04 14:23:48;;;;;;;19.40;6.50;;;;;;;17.34;49.85;97981.82;222320;1249;140593;-73
2022/11/04 14:29:07;;;;;;;20.20;7.50;;;;;;;17.28;50.00;97982.41;222428;1250;139976;-68
2022/11/04 14:34:26;;;;;;;20.70;8.30;;;;;;;17.23;50.10;97979.57;222411;1241;141072;-73
2022/11/04 14:39:41;;;;;;;21.70;8.10;;;;;;;17.18;50.38;97977.58;222294;1250;139168;-74
2022/11/04 14:44:48;;;;;;;12.70;7.60;;;;;;;17.12;50.44;97978.77;222448;1257;140185;-67
2022/11/04 14:50:18;;;;;;;20.70;7.90;;;;;;;17.08;50.60;97974.96;222387;1254;140029;-65
2022/11/04 14:55:28;;;;;;;14.30;6.70;;;;;;;17.01;50.78;97972.06;223067;1240;140695;-70
2022/11/04 15:00:39;;;;;;;25.30;8.90;;;;;;;16.95;51.01;97961.09;222694;1263;139542;-72
2022/11/04 15:05:59;;;;;;;18.50;8.10;;;;;;;16.91;51.13;97964.70;223133;1243;139971;-63
2022/11/04 15:16:47;;;;;;;17.20;9.20;;;;;;;16.81;51.47;97966.14;223951;1247;140833;-68
2022/11/04 15:21:50;;;;;;;25.80;9.40;;;;;;;16.75;51.62;97970.30;223866;1247;140798;-63
2022/11/04 15:26:55;;;;;;;;;;;;;;;16.70;51.66;97969.92;223164;1257;140538;-61
2022/11/04 15:32:00;;;;;;;22.20;9.30;;;;;;;16.63;51.96;97967.36;223259;1248;126839;-63
2022/11/04 15:37:07;;;;;;;157.90;100.80;;;;;;;16.57;52.27;97975.77;223764;1250;140135;-61
2022/11/04 15:47:38;;;;;;;25.80;11.10;;;;;;;16.51;52.72;97981.33;223003;1250;139847;-65
2022/11/04 15:52:49;;;;;;;25.00;10.70;;;;;;;16.46;53.08;97980.63;223073;1248;139354;-66
2022/11/04 15:57:54;;;;;;;20.90;10.50;;;;;;;16.48;54.41;97963.61;223093;1247;140138;-62
2022/11/04 16:02:58;;;;;;;23.60;12.00;;;;;;;16.65;54.40;97964.75;223143;1257;140242;-66
2022/11/04 16:08:13;;;;;;;19.60;11.30;;;;;;;16.53;54.35;97973.24;223943;1246;140303;-62
2022/11/04 16:13:21;;;;;;;21.90;11.60;;;;;;;16.37;54.67;97961.50;223881;1250;141008;-66
2022/11/04 16:18:49;;;;;;;25.60;11.20;;;;;;;16.23;55.07;97955.10;223327;1256;139439;-65
2022/11/04 16:24:01;;;;;;;28.00;13.00;;;;;;;16.11;55.50;97960.29;223281;1257;139719;-65
2022/11/04 16:29:17;;;;;;;20.30;11.50;;;;;;;16.01;55.90;97956.99;223189;1256;139865;-67
2022/11/04 16:34:20;;;;;;;24.10;14.40;;;;;;;15.90;56.28;97948.13;223228;1257;140879;-63
2022/11/04 16:39:23;;;;;;;29.40;14.00;;;;;;;15.77;56.76;97947.44;223169;1257;139601;-66
2022/11/04 16:44:26;;;;;;;27.90;14.30;;;;;;;15.72;57.15;97950.58;223062;1250;141420;-65
2022/11/04 16:49:29;;;;;;;28.10;15.20;;;;;;;15.71;57.64;97946.21;223245;1257;140190;-62
2022/11/04 16:54:32;;;;;;;27.00;15.90;;;;;;;15.69;57.65;97950.52;223178;1254;139746;-63
2022/11/04 16:59:36;;;;;;;27.50;16.10;;;;;;;15.66;58.02;97951.39;223045;1256;140608;-64
2022/11/04 17:04:39;;;;;;;30.40;17.00;;;;;;;15.62;58.54;97964.27;223154;1255;140731;-67
2022/11/04 17:09:42;;;;;;;30.20;16.90;;;;;;;15.58;58.61;97957.53;223927;1248;140349;-61
2022/11/04 17:14:45;;;;;;;29.70;16.80;;;;;;;15.51;58.49;97956.09;223109;1257;140041;-64
2022/11/04 17:19:48;;;;;;;28.10;16.40;;;;;;;15.45;58.76;97948.96;223983;1246;140563;-65
2022/11/04 17:24:51;;;;;;;25.70;16.60;;;;;;;15.41;58.86;97946.88;223161;1255;139643;-65
2022/11/04 17:29:54;;;;;;;26.00;16.20;;;;;;;15.36;59.04;97944.17;223217;1247;140749;-66
2022/11/04 17:34:57;;;;;;;26.70;15.60;;;;;;;15.30;58.81;97952.92;223154;1263;139599;-67
2022/11/04 17:40:00;;;;;;;25.60;16.40;;;;;;;15.28;59.00;97959.97;223079;1257;139585;-66
2022/11/04 17:45:04;;;;;;;25.30;15.30;;;;;;;15.25;59.13;97958.87;223834;1247;139700;-64
2022/11/04 17:50:07;;;;;;;26.50;14.40;;;;;;;15.27;59.04;97949.86;223205;1247;140098;-69
2022/11/04 17:55:10;;;;;;;22.90;15.70;;;;;;;15.35;59.34;97950.66;223202;1257;141181;-64
2022/11/04 18:00:23;;;;;;;25.80;15.70;;;;;;;15.38;59.05;97960.39;223273;1247;139942;-64
2022/11/04 18:05:26;;;;;;;30.70;15.90;;;;;;;15.37;59.26;97964.43;223172;1256;139319;-68
2022/11/04 18:10:29;;;;;;;26.00;16.40;;;;;;;15.35;59.33;97972.31;222942;1252;139796;-68
2022/11/04 18:15:32;;;;;;;27.30;17.90;;;;;;;15.33;59.36;97977.13;223072;1250;140204;-65
2022/11/04 18:20:34;;;;;;;31.30;17.30;;;;;;;15.27;59.75;97966.48;223119;1256;140069;-64
2022/11/04 18:25:38;;;;;;;25.70;16.20;;;;;;;15.16;59.77;97960.21;223220;1256;139750;-68
2022/11/04 18:30:41;;;;;;;28.20;15.80;;;;;;;15.05;59.81;97960.23;223124;1250;139662;-64
2022/11/04 18:35:47;;;;;;;28.10;16.80;;;;;;;14.97;59.96;97959.26;223080;1256;140912;-67
2022/11/04 18:40:53;;;;;;;27.20;16.60;;;;;;;14.88;60.27;97957.44;223883;1247;141303;-66
2022/11/04 18:45:56;;;;;;;30.20;17.90;;;;;;;14.86;60.64;97955.67;223082;1249;140625;-64
2022/11/04 18:50:59;;;;;;;28.70;18.50;;;;;;;14.89;60.72;97951.27;223077;1251;141338;-71
2022/11/04 18:56:08;;;;;;;31.00;18.10;;;;;;;14.92;60.84;97954.44;224020;1246;139756;-69
2022/11/04 19:01:25;;;;;;;31.20;17.30;;;;;;;14.87;60.76;97954.27;223210;1254;139790;-64
2022/11/04 19:06:31;;;;;;;30.00;18.40;;;;;;;14.81;61.05;97963.65;223099;1256;139742;-67
2022/11/04 19:11:36;;;;;;;28.60;19.60;;;;;;;14.75;61.24;97968.20;223151;1253;141237;-65
2022/11/04 19:16:43;;;;;;;30.00;20.10;;;;;;;14.68;61.15;97975.95;223095;1247;140019;-64
2022/11/04 19:21:48;;;;;;;33.10;19.40;;;;;;;14.70;62.08;97982.56;223240;1254;139985;-66
2022/11/04 19:26:51;;;;;;;32.70;19.00;;;;;;;15.16;62.72;97985.30;223107;1257;140972;-67
2022/11/04 19:31:54;;;;;;;27.90;19.10;;;;;;;15.13;61.88;97989.86;223313;1256;139831;-65
2022/11/04 19:36:57;;;;;;;49.50;32.10;;;;;;;15.02;61.68;97986.83;223127;1253;139751;-67
2022/11/04 19:47:23;;;;;;;37.30;23.20;;;;;;;14.80;61.56;98004.43;223157;1247;139606;-65
2022/11/04 19:52:29;;;;;;;;;;;;;;;14.69;61.97;98009.80;223227;1259;139860;-63
2022/11/04 19:57:33;;;;;;;34.80;22.40;;;;;;;14.57;62.25;98009.50;223277;1253;126446;-69
2022/11/04 20:02:36;;;;;;;34.30;20.90;;;;;;;14.55;62.47;98013.16;223061;1253;139881;-67
2022/11/04 20:07:39;;;;;;;33.20;22.00;;;;;;;14.55;62.71;98016.33;223286;1254;140960;-63
2022/11/04 20:18:04;;;;;;;31.80;21.40;;;;;;;14.60;62.72;98007.46;223230;1248;140595;-66
2022/11/04 20:23:07;;;;;;;34.10;21.70;;;;;;;14.53;62.61;98009.42;223876;1247;152146;-67
2022/11/04 20:28:10;;;;;;;30.60;19.60;;;;;;;14.44;62.62;98011.29;223887;1245;139683;-63
2022/11/04 20:33:14;;;;;;;32.30;20.80;;;;;;;14.37;62.94;98004.08;223215;1258;140018;-69
2022/11/04 20:38:17;;;;;;;31.00;20.50;;;;;;;14.29;62.92;98003.63;223939;1250;139864;-68
2022/11/04 20:43:20;;;;;;;32.70;19.70;;;;;;;14.22;62.90;97999.21;223897;1250;140427;-65
2022/11/04 20:48:22;;;;;;;34.00;20.30;;;;;;;14.16;63.20;97992.86;223190;1250;140123;-65
2022/11/04 20:53:25;;;;;;;83.60;56.80;;;;;;;14.16;63.24;98003.87;223185;1250;140457;-68
2022/11/04 20:58:29;;;;;;;36.10;21.10;;;;;;;14.25;63.74;98014.67;223226;1254;140802;-71
2022/11/04 21:03:32;;;;;;;28.90;19.70;;;;;;;14.26;63.63;98015.44;223155;1257;141178;-69
2022/11/04 21:08:36;;;;;;;30.60;19.90;;;;;;;14.25;63.55;98017.88;223159;1260;142322;-64
2022/11/04 21:13:39;;;;;;;29.20;19.70;;;;;;;14.19;63.67;98023.73;223286;1256;140999;-67
2022/11/04 21:18:43;;;;;;;28.20;19.10;;;;;;;14.12;63.64;98038.33;223083;1253;140071;-64
2022/11/04 21:23:45;;;;;;;31.10;18.60;;;;;;;14.04;63.94;98049.60;223243;1243;139856;-69
2022/11/04 21:28:53;;;;;;;30.00;18.90;;;;;;;13.99;64.23;98058.27;223129;1251;140811;-70
2022/11/04 21:33:56;;;;;;;60.80;39.00;;;;;;;13.99;64.21;98067.36;223231;1261;140735;-64
2022/11/04 21:38:59;;;;;;;30.60;19.50;;;;;;;14.05;64.47;98076.80;223955;1252;140097;-63
2022/11/04 21:44:07;;;;;;;31.90;20.40;;;;;;;14.10;64.50;98073.65;224132;1250;140386;-63
2022/11/04 21:49:11;;;;;;;35.10;23.40;;;;;;;14.14;64.60;98073.61;223755;1250;139557;-64
2022/11/04 21:54:14;;;;;;;28.00;18.90;;;;;;;14.17;64.42;98064.80;223159;1255;139316;-67
2022/11/04 21:59:17;;;;;;;33.20;21.70;;;;;;;14.15;64.82;98067.89;223804;1248;139908;-69
2022/11/04 22:04:20;;;;;;;36.20;22.00;;;;;;;14.10;64.58;98072.91;223244;1257;140408;-63
2022/11/04 22:09:23;;;;;;;33.70;20.00;;;;;;;14.09;64.98;98062.52;223267;1257;140669;-64
2022/11/04 22:14:27;;;;;;;28.00;20.20;;;;;;;14.10;65.01;98066.35;223159;1257;140078;-62
2022/11/04 22:19:30;;;;;;;32.30;20.60;;;;;;;14.13;64.97;98073.40;223336;1262;140893;-64
2022/11/04 22:24:33;;;;;;;34.00;21.40;;;;;;;14.17;65.32;98075.53;223311;1257;139863;-67
2022/11/04 22:29:36;;;;;;;30.50;21.20;;;;;;;14.19;65.23;98076.20;223960;1250;139339;-63
2022/11/04 22:34:39;;;;;;;34.00;22.10;;;;;;;14.16;65.14;98077.05;223273;1250;140256;-62
2022/11/04 22:39:42;;;;;;;37.00;22.40;;;;;;;14.12;65.55;98073.87;223140;1258;139715;-61
2022/11/04 22:44:45;;;;;;;33.10;21.30;;;;;;;14.10;65.38;98073.00;223180;1260;139906;-64
2022/11/04 22:49:47;;;;;;;34.20;21.70;;;;;;;14.11;65.53;98065.33;224031;1239;140553;-68
2022/11/04 22:54:50;;;;;;;36.40;22.20;;;;;;;14.14;65.52;98053.84;223980;1247;140661;-63
2022/11/04 22:59:53;;;;;;;32.60;22.80;;;;;;;14.19;65.75;98055.88;223197;1257;140107;-69
2022/11/04 23:04:56;;;;;;;35.60;23.00;;;;;;;14.23;65.66;98055.92;223263;1260;140758;-68
2022/11/04 23:20:43;;;;;;;33.60;21.60;;;;;;;14.09;65.58;98039.48;223868;1245;140511;-61
2022/11/04 23:25:46;;;;;;;36.80;21.40;;;;;;;14.08;65.57;98047.67;223347;1257;140383;-64
2022/11/04 23:30:50;;;;;;;32.40;21.90;;;;;;;14.08;65.63;98064.71;223148;1258;140594;-62
